createdAt,value
2019-05-13T00:00:34.235Z,9.00
2019-05-13T00:03:03.630Z,9.00
2019-05-13T00:05:33.923Z,9.00
2019-05-13T00:08:03.649Z,9.10
2019-05-13T00:10:34.739Z,9.10
2019-05-13T00:13:04.318Z,9.00
2019-05-13T00:15:34.053Z,9.00
2019-05-13T00:18:03.881Z,9.00
2019-05-13T00:20:33.793Z,9.10
2019-05-13T00:23:03.878Z,9.00
2019-05-13T00:25:34.027Z,8.90
2019-05-13T00:28:04.051Z,8.90
2019-05-13T00:30:34.100Z,9.00
2019-05-13T00:33:03.721Z,9.00
2019-05-13T00:35:33.910Z,9.10
2019-05-13T00:38:03.902Z,9.10
2019-05-13T00:40:33.751Z,9.00
2019-05-13T00:43:03.903Z,9.00
2019-05-13T00:45:33.829Z,9.00
2019-05-13T00:48:04.469Z,9.00
2019-05-13T00:50:33.682Z,9.10
2019-05-13T00:53:04.415Z,9.00
2019-05-13T00:55:34.309Z,8.90
2019-05-13T00:58:04.258Z,8.90
2019-05-13T01:00:33.917Z,8.90
2019-05-13T01:03:04.072Z,8.90
2019-05-13T01:05:34.059Z,8.90
2019-05-13T01:08:04.307Z,8.90
2019-05-13T01:10:34.584Z,8.80
2019-05-13T01:13:04.786Z,8.80
2019-05-13T01:15:34.551Z,8.80
2019-05-13T01:18:03.939Z,8.80
2019-05-13T01:20:34.380Z,8.80
2019-05-13T01:23:04.176Z,8.70
2019-05-13T01:25:33.764Z,8.80
2019-05-13T01:28:04.633Z,8.80
2019-05-13T01:30:34.471Z,8.70
2019-05-13T01:33:04.437Z,8.70
2019-05-13T01:35:34.318Z,8.60
2019-05-13T01:38:04.651Z,8.50
2019-05-13T01:40:34.798Z,8.40
2019-05-13T01:43:03.937Z,8.50
2019-05-13T01:45:33.812Z,8.50
2019-05-13T01:48:07.449Z,8.40
2019-05-13T01:50:33.768Z,8.40
2019-05-13T01:53:04.152Z,8.40
2019-05-13T01:55:34.259Z,8.50
2019-05-13T01:58:04.156Z,8.60
2019-05-13T02:00:35.415Z,8.50
2019-05-13T02:03:04.231Z,8.60
2019-05-13T02:05:34.014Z,8.60
2019-05-13T02:08:04.459Z,8.60
2019-05-13T02:10:56.115Z,8.60
2019-05-13T02:13:25.026Z,8.60
2019-05-13T02:15:55.201Z,8.60
2019-05-13T02:18:24.851Z,8.60
2019-05-13T02:20:55.433Z,8.60
2019-05-13T02:23:24.487Z,8.60
2019-05-13T02:25:54.185Z,8.50
2019-05-13T02:28:24.633Z,8.60
2019-05-13T02:30:55.982Z,8.60
2019-05-13T02:33:24.440Z,8.60
2019-05-13T02:35:53.878Z,8.60
2019-05-13T02:38:28.958Z,8.50
2019-05-13T02:40:53.423Z,8.50
2019-05-13T02:43:23.754Z,8.50
2019-05-13T02:45:53.665Z,8.50
2019-05-13T02:48:23.691Z,8.50
2019-05-13T02:50:53.497Z,8.50
2019-05-13T02:53:23.638Z,8.50
2019-05-13T02:55:52.958Z,8.60
2019-05-13T02:58:24.182Z,8.50
2019-05-13T03:00:53.397Z,8.50
2019-05-13T03:03:23.154Z,8.40
2019-05-13T03:05:53.109Z,8.40
2019-05-13T03:08:35.303Z,8.40
2019-05-13T03:10:53.423Z,8.40
2019-05-13T03:13:23.627Z,8.40
2019-05-13T03:16:17.074Z,8.40
2019-05-13T03:18:46.026Z,8.30
2019-05-13T03:21:14.597Z,8.20
2019-05-13T03:23:44.294Z,8.20
2019-05-13T03:26:13.488Z,8.10
2019-05-13T03:28:43.562Z,8.10
2019-05-13T03:31:16.791Z,8.00
2019-05-13T03:33:46.792Z,7.90
2019-05-13T03:36:17.267Z,7.90
2019-05-13T03:38:59.878Z,7.80
2019-05-13T03:41:15.213Z,7.70
2019-05-13T03:43:43.772Z,7.70
2019-05-13T03:46:13.041Z,7.80
2019-05-13T03:48:43.057Z,7.70
2019-05-13T03:51:13.293Z,7.70
2019-05-13T03:53:43.412Z,7.70
2019-05-13T03:56:13.172Z,7.70
2019-05-13T03:58:43.263Z,7.70
2019-05-13T04:01:13.279Z,7.80
2019-05-13T04:03:44.084Z,7.80
2019-05-13T04:06:13.778Z,7.70
2019-05-13T04:08:43.802Z,7.80
2019-05-13T04:11:13.055Z,7.90
2019-05-13T04:13:42.962Z,8.00
2019-05-13T04:16:12.743Z,8.00
2019-05-13T04:18:42.934Z,8.10
2019-05-13T04:21:13.113Z,8.20
2019-05-13T04:23:42.836Z,8.20
2019-05-13T04:26:14.978Z,8.20
2019-05-13T04:28:43.417Z,8.30
2019-05-13T04:31:14.205Z,8.30
2019-05-13T04:33:43.289Z,8.30
2019-05-13T04:36:13.297Z,8.30
2019-05-13T04:38:44.302Z,8.40
2019-05-13T04:41:12.426Z,8.40
2019-05-13T04:43:43.410Z,8.50
2019-05-13T04:46:14.025Z,8.50
2019-05-13T04:48:44.230Z,8.60
2019-05-13T04:51:13.575Z,8.60
2019-05-13T04:53:43.108Z,8.70
2019-05-13T04:56:13.780Z,8.70
2019-05-13T04:58:43.019Z,8.70
2019-05-13T05:01:59.133Z,8.70
2019-05-13T05:04:52.903Z,8.70
2019-05-13T05:07:42.029Z,8.70
2019-05-13T05:10:32.785Z,8.60
2019-05-13T05:13:32.399Z,8.70
2019-05-13T05:16:08.586Z,8.60
2019-05-13T05:19:24.728Z,8.70
2019-05-13T05:22:23.006Z,8.70
2019-05-13T05:25:12.554Z,8.70
2019-05-13T05:28:03.400Z,8.70
2019-05-13T05:31:17.879Z,8.70
2019-05-13T05:34:15.870Z,8.70
2019-05-13T05:37:26.531Z,8.70
2019-05-13T05:39:56.072Z,8.70
2019-05-13T05:42:24.935Z,8.70
2019-05-13T05:44:53.839Z,8.70
2019-05-13T05:47:22.401Z,8.80
2019-05-13T05:49:51.656Z,8.80
2019-05-13T05:52:21.257Z,9.00
2019-05-13T05:54:51.617Z,9.00
2019-05-13T05:57:22.333Z,9.10
2019-05-13T05:59:51.683Z,9.20
2019-05-13T06:02:22.978Z,9.30
2019-05-13T06:04:51.907Z,9.40
2019-05-13T06:07:21.984Z,9.50
2019-05-13T06:09:51.558Z,9.60
2019-05-13T06:12:21.388Z,9.60
2019-05-13T06:14:52.384Z,9.60
2019-05-13T06:17:21.929Z,9.70
2019-05-13T06:19:51.323Z,9.80
2019-05-13T06:22:21.717Z,10.00
2019-05-13T06:24:52.208Z,10.20
2019-05-13T06:27:21.583Z,10.30
2019-05-13T06:29:52.644Z,10.40
2019-05-13T06:32:25.396Z,10.40
2019-05-13T06:34:52.483Z,10.50
2019-05-13T06:37:21.780Z,10.50
2019-05-13T06:39:51.219Z,10.50
2019-05-13T06:42:22.264Z,10.50
2019-05-13T06:44:51.383Z,10.70
2019-05-13T06:47:21.965Z,10.70
2019-05-13T06:49:51.631Z,10.80
2019-05-13T06:52:21.263Z,10.80
2019-05-13T06:54:52.068Z,11.00
2019-05-13T06:57:22.007Z,11.20
2019-05-13T06:59:52.319Z,11.30
2019-05-13T07:02:21.730Z,11.40
2019-05-13T07:04:51.658Z,11.50
2019-05-13T07:07:21.880Z,11.60
2019-05-13T07:09:51.737Z,11.50
2019-05-13T07:12:21.959Z,11.50
2019-05-13T07:14:51.764Z,11.50
2019-05-13T07:17:22.267Z,11.50
2019-05-13T07:19:51.721Z,11.50
2019-05-13T07:22:23.019Z,11.50
2019-05-13T07:24:51.913Z,11.60
2019-05-13T07:27:22.925Z,11.70
2019-05-13T07:29:53.642Z,11.80
2019-05-13T07:32:22.243Z,12.00
2019-05-13T07:34:53.160Z,12.00
2019-05-13T07:37:22.078Z,12.00
2019-05-13T07:39:53.012Z,12.20
2019-05-13T07:42:22.214Z,12.30
2019-05-13T07:44:52.212Z,12.30
2019-05-13T07:47:22.288Z,12.60
2019-05-13T07:49:51.722Z,12.70
2019-05-13T07:52:22.665Z,12.90
2019-05-13T07:54:52.091Z,13.00
2019-05-13T07:57:21.449Z,13.20
2019-05-13T07:59:52.199Z,13.50
2019-05-13T08:02:21.664Z,13.80
2019-05-13T08:04:53.065Z,14.00
2019-05-13T08:07:22.668Z,14.30
2019-05-13T08:09:55.159Z,14.50
2019-05-13T08:12:21.790Z,14.70
2019-05-13T08:14:52.119Z,15.20
2019-05-13T08:17:22.418Z,16.10
2019-05-13T08:19:52.075Z,16.60
2019-05-13T08:22:22.140Z,16.70
2019-05-13T08:24:54.052Z,17.10
2019-05-13T08:27:30.096Z,17.10
2019-05-13T08:29:52.155Z,17.30
2019-05-13T08:32:22.167Z,17.50
2019-05-13T08:34:52.648Z,17.60
2019-05-13T08:37:21.773Z,17.90
2019-05-13T08:39:52.186Z,18.40
2019-05-13T08:42:23.370Z,18.90
2019-05-13T08:44:52.273Z,18.90
2019-05-13T08:47:22.464Z,19.50
2019-05-13T08:49:52.031Z,19.30
2019-05-13T08:52:21.943Z,19.20
2019-05-13T08:54:52.540Z,19.20
2019-05-13T08:57:22.167Z,19.10
2019-05-13T08:59:51.717Z,19.40
2019-05-13T09:02:23.291Z,19.50
2019-05-13T09:04:51.852Z,19.50
2019-05-13T09:07:23.605Z,19.20
2019-05-13T09:09:51.313Z,19.20
2019-05-13T09:12:31.480Z,19.30
2019-05-13T09:14:52.402Z,19.40
2019-05-13T09:17:21.320Z,19.20
2019-05-13T09:19:52.014Z,19.80
2019-05-13T09:22:21.396Z,19.80
2019-05-13T09:24:52.832Z,19.60
2019-05-13T09:27:22.571Z,20.20
2019-05-13T09:29:51.812Z,20.70
2019-05-13T09:32:21.482Z,20.80
2019-05-13T09:34:52.437Z,21.00
2019-05-13T09:37:22.425Z,20.80
2019-05-13T09:39:51.868Z,20.60
2019-05-13T09:42:21.655Z,20.60
2019-05-13T09:44:52.605Z,20.70
2019-05-13T09:47:21.671Z,21.10
2019-05-13T09:49:50.439Z,21.30
2019-05-13T09:52:19.010Z,21.40
2019-05-13T09:54:47.720Z,21.20
2019-05-13T09:57:16.261Z,21.20
2019-05-13T09:59:44.851Z,21.20
2019-05-13T10:02:13.410Z,21.90
2019-05-13T10:04:43.652Z,21.40
2019-05-13T10:07:12.637Z,20.10
2019-05-13T10:09:42.951Z,19.90
2019-05-13T10:12:12.252Z,20.10
2019-05-13T10:14:41.040Z,20.10
2019-05-13T10:17:09.620Z,20.20
2019-05-13T10:19:38.252Z,19.10
2019-05-13T10:22:06.825Z,18.40
2019-05-13T10:24:35.394Z,17.80
2019-05-13T10:27:03.993Z,17.20
2019-05-13T10:29:32.598Z,16.90
2019-05-13T10:32:02.600Z,16.70
2019-05-13T10:34:32.413Z,17.60
2019-05-13T10:37:02.070Z,18.70
2019-05-13T10:39:31.297Z,18.70
2019-05-13T10:42:03.142Z,18.10
2019-05-13T10:44:30.165Z,17.30
2019-05-13T10:46:58.743Z,17.90
2019-05-13T10:49:27.344Z,17.70
2019-05-13T10:51:55.913Z,17.30
2019-05-13T10:54:24.483Z,16.60
2019-05-13T10:56:59.093Z,16.40
2019-05-13T10:59:23.399Z,16.40
2019-05-13T11:01:52.299Z,16.30
2019-05-13T11:04:22.070Z,16.40
2019-05-13T11:06:52.565Z,17.00
2019-05-13T11:09:22.155Z,17.00
2019-05-13T11:11:52.738Z,16.70
2019-05-13T11:14:22.029Z,17.60
2019-05-13T11:16:52.235Z,18.30
2019-05-13T11:19:23.096Z,19.20
2019-05-13T11:21:51.682Z,19.90
2019-05-13T11:24:22.787Z,20.40
2019-05-13T11:26:53.181Z,20.20
2019-05-13T11:29:23.001Z,19.70
2019-05-13T11:31:52.482Z,18.80
2019-05-13T11:34:22.299Z,18.70
2019-05-13T11:36:53.161Z,19.30
2019-05-13T11:39:21.900Z,19.70
2019-05-13T11:41:50.809Z,20.10
2019-05-13T11:44:22.584Z,20.60
2019-05-13T11:46:53.377Z,21.00
2019-05-13T11:49:22.099Z,21.10
2019-05-13T11:51:51.935Z,20.90
2019-05-13T11:54:22.340Z,20.80
2019-05-13T11:57:01.140Z,21.40
2019-05-13T11:59:22.250Z,21.40
2019-05-13T12:01:53.738Z,21.50
2019-05-13T12:04:24.090Z,21.80
2019-05-13T12:06:54.543Z,22.20
2019-05-13T12:09:24.916Z,22.30
2019-05-13T12:11:53.892Z,22.10
2019-05-13T12:14:43.513Z,22.10
2019-05-13T12:16:52.779Z,21.60
2019-05-13T12:19:22.034Z,20.90
2019-05-13T12:21:54.081Z,20.60
2019-05-13T12:24:22.670Z,21.00
2019-05-13T12:26:53.299Z,21.40
2019-05-13T12:29:22.387Z,21.80
2019-05-13T12:31:52.597Z,21.80
2019-05-13T12:34:22.774Z,21.20
2019-05-13T12:36:51.821Z,21.30
2019-05-13T12:39:23.845Z,21.40
2019-05-13T12:41:53.490Z,21.70
2019-05-13T12:44:22.851Z,21.70
2019-05-13T12:46:54.077Z,20.90
2019-05-13T12:49:22.255Z,20.00
2019-05-13T12:51:51.729Z,19.20
2019-05-13T12:54:23.689Z,18.50
2019-05-13T12:56:52.638Z,18.40
2019-05-13T12:59:22.377Z,18.80
2019-05-13T13:01:52.637Z,19.60
2019-05-13T13:04:23.901Z,19.60
2019-05-13T13:06:53.288Z,19.30
2019-05-13T13:09:22.585Z,19.30
2019-05-13T13:11:54.502Z,19.50
2019-05-13T13:14:21.628Z,19.90
2019-05-13T13:16:53.633Z,20.30
2019-05-13T13:19:22.069Z,20.30
2019-05-13T13:21:53.524Z,20.20
2019-05-13T13:24:23.551Z,19.60
2019-05-13T13:26:53.359Z,19.30
2019-05-13T13:29:22.314Z,18.80
2019-05-13T13:31:55.323Z,18.30
2019-05-13T13:34:25.890Z,17.90
2019-05-13T13:36:52.654Z,17.40
2019-05-13T13:39:25.399Z,17.70
2019-05-13T13:41:53.326Z,18.40
2019-05-13T13:44:24.535Z,19.10
2019-05-13T13:46:54.830Z,19.20
2019-05-13T13:49:23.431Z,19.20
2019-05-13T13:51:52.182Z,19.20
2019-05-13T13:54:22.476Z,19.10
2019-05-13T13:56:55.767Z,18.60
2019-05-13T13:59:24.780Z,18.40
2019-05-13T14:01:54.958Z,18.60
2019-05-13T14:04:24.060Z,18.60
2019-05-13T14:07:25.317Z,18.40
2019-05-13T14:09:23.407Z,18.30
2019-05-13T14:11:51.999Z,18.70
2019-05-13T14:14:21.513Z,19.00
2019-05-13T14:16:51.845Z,19.40
2019-05-13T14:19:21.840Z,19.60
2019-05-13T14:21:52.462Z,19.60
2019-05-13T14:24:21.763Z,19.30
2019-05-13T14:26:52.321Z,19.00
2019-05-13T14:29:25.689Z,18.50
2019-05-13T14:31:52.006Z,18.30
2019-05-13T14:34:20.876Z,18.20
2019-05-13T14:36:51.839Z,18.30
2019-05-13T14:39:22.080Z,18.50
2019-05-13T14:41:51.618Z,18.70
2019-05-13T14:44:21.926Z,18.90
2019-05-13T14:46:52.391Z,18.60
2019-05-13T14:49:22.471Z,18.60
2019-05-13T14:51:52.290Z,18.40
2019-05-13T14:54:21.527Z,18.00
2019-05-13T14:56:52.016Z,17.60
2019-05-13T14:59:22.080Z,17.30
2019-05-13T15:01:51.891Z,17.00
2019-05-13T15:04:22.313Z,17.00
2019-05-13T15:06:51.477Z,17.20
2019-05-13T15:09:20.172Z,17.40
2019-05-13T15:11:52.756Z,17.70
2019-05-13T15:14:22.008Z,17.80
2019-05-13T15:17:02.174Z,17.80
2019-05-13T15:19:22.325Z,17.80
2019-05-13T15:21:52.120Z,17.90
2019-05-13T15:24:21.342Z,17.90
2019-05-13T15:26:51.687Z,17.90
2019-05-13T15:29:22.319Z,17.80
2019-05-13T15:31:51.448Z,17.70
2019-05-13T15:34:20.654Z,17.60
2019-05-13T15:36:50.951Z,17.50
2019-05-13T15:39:20.592Z,17.20
2019-05-13T15:41:49.179Z,17.10
2019-05-13T15:44:18.517Z,16.90
2019-05-13T15:46:48.263Z,16.90
2019-05-13T15:49:16.990Z,16.80
2019-05-13T15:51:47.255Z,16.80
2019-05-13T15:54:15.941Z,16.60
2019-05-13T15:56:44.587Z,16.60
2019-05-13T15:59:13.168Z,16.50
2019-05-13T16:01:41.765Z,16.40
2019-05-13T16:04:12.791Z,16.40
2019-05-13T16:06:41.859Z,16.50
2019-05-13T16:09:11.710Z,16.30
2019-05-13T16:11:41.411Z,16.50
2019-05-13T16:15:10.687Z,16.50
2019-05-13T16:16:41.759Z,16.50
2019-05-13T16:19:10.718Z,16.60
2019-05-13T16:21:41.355Z,16.70
2019-05-13T16:24:11.965Z,16.80
2019-05-13T16:26:42.722Z,16.80
2019-05-13T16:29:12.602Z,16.80
2019-05-13T16:31:41.786Z,16.70
2019-05-13T16:34:11.186Z,16.50
2019-05-13T16:36:42.832Z,16.50
2019-05-13T16:39:12.339Z,16.30
2019-05-13T16:41:42.769Z,16.50
2019-05-13T16:44:11.873Z,16.40
2019-05-13T16:46:42.585Z,16.40
2019-05-13T16:49:12.088Z,16.40
2019-05-13T16:51:42.636Z,16.40
2019-05-13T16:54:12.055Z,16.20
2019-05-13T16:56:42.060Z,16.20
2019-05-13T16:59:11.536Z,16.10
2019-05-13T17:01:42.006Z,16.00
2019-05-13T17:04:12.618Z,16.00
2019-05-13T17:06:41.686Z,16.00
2019-05-13T17:09:11.624Z,15.90
2019-05-13T17:11:41.493Z,15.90
2019-05-13T17:14:10.607Z,15.90
2019-05-13T17:16:41.209Z,16.00
2019-05-13T17:19:11.854Z,15.90
2019-05-13T17:21:41.082Z,15.80
2019-05-13T17:24:12.160Z,15.60
2019-05-13T17:26:41.840Z,15.60
2019-05-13T17:29:11.984Z,15.50
2019-05-13T17:31:41.913Z,15.40
2019-05-13T17:34:12.351Z,15.20
2019-05-13T17:36:41.879Z,15.00
2019-05-13T17:39:12.501Z,14.80
2019-05-13T17:41:41.743Z,14.70
2019-05-13T17:44:11.649Z,14.60
2019-05-13T17:46:41.909Z,14.50
2019-05-13T17:49:11.944Z,14.40
2019-05-13T17:51:42.555Z,14.30
2019-05-13T17:54:12.386Z,14.20
2019-05-13T17:56:41.307Z,14.20
2019-05-13T17:59:11.390Z,14.00
2019-05-13T18:01:41.269Z,14.00
2019-05-13T18:04:11.837Z,14.00
2019-05-13T18:06:41.734Z,13.80
2019-05-13T18:09:11.988Z,13.90
2019-05-13T18:11:41.766Z,13.80
2019-05-13T18:14:11.432Z,13.80
2019-05-13T18:16:41.964Z,13.70
2019-05-13T18:19:12.122Z,13.60
2019-05-13T18:21:42.485Z,13.60
2019-05-13T18:24:11.901Z,13.60
2019-05-13T18:26:41.887Z,13.50
2019-05-13T18:29:12.183Z,13.50
2019-05-13T18:31:42.302Z,13.40
2019-05-13T18:34:12.209Z,13.30
2019-05-13T18:36:42.676Z,13.20
2019-05-13T18:39:12.423Z,13.20
2019-05-13T18:41:41.498Z,13.20
2019-05-13T18:44:12.245Z,13.10
2019-05-13T18:46:41.743Z,13.10
2019-05-13T18:49:12.055Z,13.00
2019-05-13T18:51:42.248Z,12.90
2019-05-13T18:54:12.173Z,12.80
2019-05-13T18:56:41.577Z,12.80
2019-05-13T18:59:12.601Z,12.80
2019-05-13T19:01:42.249Z,12.80
2019-05-13T19:04:11.667Z,12.60
2019-05-13T19:06:42.386Z,12.60
2019-05-13T19:09:12.005Z,12.60
2019-05-13T19:11:42.687Z,12.50
2019-05-13T19:14:12.310Z,12.40
2019-05-13T19:16:42.259Z,12.40
2019-05-13T19:19:15.536Z,12.50
2019-05-13T19:21:41.757Z,12.40
2019-05-13T19:24:13.167Z,12.40
2019-05-13T19:26:41.669Z,12.40
2019-05-13T19:29:11.629Z,12.40
2019-05-13T19:31:41.815Z,12.30
2019-05-13T19:34:12.466Z,12.10
2019-05-13T19:36:41.390Z,12.20
2019-05-13T19:39:11.373Z,12.00
2019-05-13T19:41:42.221Z,12.10
2019-05-13T19:44:10.467Z,12.10
2019-05-13T19:46:39.026Z,12.00
2019-05-13T19:49:07.720Z,11.90
2019-05-13T19:51:36.304Z,11.80
2019-05-13T19:54:04.879Z,11.70
2019-05-13T19:56:33.463Z,11.70
2019-05-13T19:59:02.131Z,11.60
2019-05-13T20:01:32.204Z,11.70
2019-05-13T20:04:02.353Z,11.60
2019-05-13T20:06:31.982Z,11.50
2019-05-13T20:09:01.428Z,11.40
2019-05-13T20:11:30.346Z,11.30
2019-05-13T20:14:01.165Z,11.30
2019-05-13T20:16:29.192Z,11.30
2019-05-13T20:18:58.043Z,11.30
2019-05-13T20:21:26.602Z,11.30
2019-05-13T20:23:55.210Z,11.20
2019-05-13T20:26:23.806Z,11.20
2019-05-13T20:28:52.374Z,11.20
2019-05-13T20:31:21.706Z,11.20
2019-05-13T20:33:51.562Z,11.20
2019-05-13T20:36:22.235Z,11.20
2019-05-13T20:38:51.613Z,11.20
2019-05-13T20:41:22.369Z,11.30
2019-05-13T20:43:52.127Z,11.30
2019-05-13T20:46:23.087Z,11.20
2019-05-13T20:48:51.980Z,11.10
2019-05-13T20:51:21.945Z,11.10
2019-05-13T20:53:51.790Z,11.20
2019-05-13T20:56:21.473Z,11.20
2019-05-13T20:58:51.534Z,11.10
2019-05-13T21:01:20.264Z,11.10
2019-05-13T21:03:51.358Z,11.10
2019-05-13T21:06:19.127Z,11.10
2019-05-13T21:08:47.730Z,10.90
2019-05-13T21:11:16.730Z,10.80
2019-05-13T21:13:45.295Z,10.80
2019-05-13T21:16:13.912Z,10.80
2019-05-13T21:18:42.490Z,10.80
2019-05-13T21:21:11.742Z,10.70
2019-05-13T21:23:41.773Z,10.60
2019-05-13T21:26:14.983Z,10.70
2019-05-13T21:28:41.967Z,10.60
2019-05-13T21:31:11.394Z,10.60
2019-05-13T21:33:40.182Z,10.40
2019-05-13T21:36:08.742Z,10.40
2019-05-13T21:38:37.306Z,10.40
2019-05-13T21:41:05.970Z,10.40
2019-05-13T21:43:34.555Z,10.30
2019-05-13T21:46:03.125Z,10.30
2019-05-13T21:48:32.385Z,10.30
2019-05-13T21:51:01.148Z,10.20
2019-05-13T21:53:32.353Z,10.20
2019-05-13T21:56:02.125Z,10.20
2019-05-13T21:58:31.291Z,10.10
2019-05-13T22:09:11.515Z,10.00
2019-05-13T22:11:41.957Z,9.90
2019-05-13T22:14:11.345Z,9.90
2019-05-13T22:16:41.290Z,9.90
2019-05-13T22:19:12.297Z,10.00
2019-05-13T22:21:42.328Z,9.90
2019-05-13T22:24:11.627Z,9.90
2019-05-13T22:26:41.919Z,9.80
2019-05-13T22:29:10.894Z,9.80
2019-05-13T22:31:41.799Z,9.70
2019-05-13T22:34:11.919Z,9.70
2019-05-13T22:36:40.050Z,9.70
2019-05-13T22:39:08.643Z,9.60
2019-05-13T22:41:37.212Z,9.60
2019-05-13T22:44:05.858Z,9.50
2019-05-13T22:46:34.518Z,9.50
2019-05-13T22:49:03.411Z,9.50
2019-05-13T22:51:32.173Z,9.50
2019-05-13T22:54:00.720Z,9.40
2019-05-13T22:56:31.783Z,9.50
2019-05-13T22:59:01.926Z,9.30
2019-05-13T23:01:32.423Z,9.40
2019-05-13T23:04:02.177Z,9.40
2019-05-13T23:06:32.113Z,9.30
2019-05-13T23:09:01.737Z,9.20
2019-05-13T23:11:31.073Z,9.10
2019-05-13T23:14:09.678Z,9.10
2019-05-13T23:16:31.603Z,9.10
2019-05-13T23:19:00.359Z,8.90
2019-05-13T23:21:31.141Z,8.90
2019-05-13T23:23:59.241Z,8.80
2019-05-13T23:26:28.143Z,8.80
2019-05-13T23:28:56.745Z,8.60
2019-05-13T23:31:25.306Z,8.60
2019-05-13T23:33:54.190Z,8.50
2019-05-13T23:36:22.786Z,8.40
2019-05-13T23:38:51.738Z,8.40
2019-05-13T23:41:21.772Z,8.40
2019-05-13T23:43:50.594Z,8.20
2019-05-13T23:46:19.175Z,8.20
2019-05-13T23:48:48.380Z,8.10
2019-05-13T23:51:17.240Z,8.00
2019-05-13T23:53:45.970Z,8.00
2019-05-13T23:56:14.526Z,8.00
2019-05-13T23:58:43.103Z,7.90
